Time;durP1;ratioP1;P1;durP2;ratioP2;P2;SDS_P1;SDS_P2;PMS_P1;PMS_P2;Temp;Humidity;BMP_temperature;BMP_pressure;BME280_temperature;BME280_humidity;BME280_pressure;Samples;Min_cycle;Max_cycle;Signal;HPM_P1;HPM_P2
2023/05/18 00:02:07;;;;;;;5.97;4.70;;;8.80;99.90;;;;;;5111436;28;21120;-82
2023/05/18 00:04:35;;;;;;;4.97;4.20;;;8.80;99.90;;;;;;5111929;28;20913;-83
2023/05/18 00:07:05;;;;;;;4.47;4.07;;;8.80;99.90;;;;;;5111631;28;20500;-82
2023/05/18 00:09:35;;;;;;;5.50;4.40;;;8.80;99.90;;;;;;5111640;28;20452;-82
2023/05/18 00:12:04;;;;;;;4.60;4.20;;;8.70;99.90;;;;;;5111380;28;20816;-82
2023/05/18 00:14:31;;;;;;;5.17;4.77;;;8.50;99.90;;;;;;5111424;28;20431;-82
2023/05/18 00:17:00;;;;;;;5.07;3.60;;;8.40;99.90;;;;;;5111299;28;20479;-82
2023/05/18 00:19:27;;;;;;;6.40;4.40;;;8.40;99.90;;;;;;5111715;28;20530;-82
2023/05/18 00:21:55;;;;;;;7.10;4.50;;;8.20;99.90;;;;;;5110986;28;20454;-82
2023/05/18 00:24:24;;;;;;;4.67;4.10;;;8.20;99.90;;;;;;5111735;28;20570;-82
2023/05/18 00:26:51;;;;;;;7.03;4.80;;;8.10;99.90;;;;;;5111562;28;20933;-82
2023/05/18 00:29:18;;;;;;;6.63;5.70;;;8.00;99.90;;;;;;5111862;28;20480;-82
2023/05/18 00:31:45;;;;;;;7.53;6.53;;;7.90;99.90;;;;;;5115343;28;21245;-83
2023/05/18 00:34:13;;;;;;;9.03;5.43;;;7.80;99.90;;;;;;5115610;28;20442;-82
2023/05/18 00:36:40;;;;;;;6.03;5.20;;;7.90;99.90;;;;;;5115369;28;20529;-82
2023/05/18 00:39:08;;;;;;;8.57;6.77;;;8.00;99.90;;;;;;5115669;28;20518;-82
2023/05/18 00:41:37;;;;;;;6.47;5.67;;;8.00;99.90;;;;;;5115073;28;20474;-82
2023/05/18 00:44:04;;;;;;;9.60;5.80;;;8.00;99.90;;;;;;5114847;28;20501;-82
2023/05/18 00:46:31;;;;;;;6.67;6.07;;;8.10;99.90;;;;;;5114944;28;20504;-82
2023/05/18 00:49:00;;;;;;;6.27;5.63;;;8.10;99.90;;;;;;5114882;28;20519;-83
2023/05/18 00:51:28;;;;;;;7.00;5.40;;;8.30;99.90;;;;;;5114852;28;20459;-82
2023/05/18 00:53:56;;;;;;;6.23;5.63;;;8.20;99.90;;;;;;5114806;28;20435;-82
2023/05/18 00:56:25;;;;;;;6.60;5.90;;;8.30;99.90;;;;;;5114847;28;20442;-82
2023/05/18 00:58:55;;;;;;;6.93;6.33;;;8.20;99.90;;;;;;5114240;28;20935;-82
2023/05/18 01:01:28;;;;;;;6.43;5.50;;;8.30;99.90;;;;;;5114257;28;20462;-82
2023/05/18 01:03:55;;;;;;;5.80;5.30;;;8.10;99.90;;;;;;5114695;28;20477;-82
2023/05/18 01:06:24;;;;;;;6.10;5.50;;;8.20;99.90;;;;;;5114612;28;20427;-82
2023/05/18 01:08:52;;;;;;;6.03;5.43;;;8.40;99.90;;;;;;5114395;28;20446;-83
2023/05/18 01:11:26;;;;;;;5.90;5.30;;;8.30;99.90;;;;;;5114368;28;20499;-82
2023/05/18 01:14:03;;;;;;;5.90;5.40;;;8.10;99.90;;;;;;5114963;28;20487;-82
2023/05/18 01:16:36;;;;;;;6.67;5.30;;;8.10;99.90;;;;;;5114505;28;20538;-82
2023/05/18 01:19:16;;;;;;;5.90;4.80;;;8.00;99.90;;;;;;5114607;28;21252;-82
2023/05/18 01:21:57;;;;;;;6.43;5.77;;;7.90;99.90;;;;;;5113909;28;20514;-83
2023/05/18 01:24:32;;;;;;;6.73;6.13;;;7.80;99.90;;;;;;5114323;28;20481;-82
2023/05/18 01:27:02;;;;;;;5.50;4.77;;;7.80;99.90;;;;;;5113612;28;20453;-82
2023/05/18 01:29:30;;;;;;;6.57;5.97;;;7.90;99.90;;;;;;5113077;28;20845;-82
2023/05/18 01:31:57;;;;;;;6.60;5.60;;;7.90;99.90;;;;;;5112904;28;20547;-82
2023/05/18 01:34:25;;;;;;;5.03;4.53;;;8.00;99.90;;;;;;5112842;28;20446;-82
2023/05/18 01:36:52;;;;;;;6.30;5.70;;;8.00;99.90;;;;;;5112777;28;20943;-82
2023/05/18 01:39:19;;;;;;;7.07;5.40;;;8.10;99.90;;;;;;5112790;28;20524;-82
2023/05/18 01:41:54;;;;;;;6.20;5.53;;;8.10;99.90;;;;;;5111694;28;20541;-81
2023/05/18 01:44:27;;;;;;;6.50;5.63;;;8.20;99.90;;;;;;5113430;28;20554;-82
2023/05/18 01:46:59;;;;;;;5.93;5.43;;;8.40;99.90;;;;;;5113720;28;20447;-82
2023/05/18 01:49:32;;;;;;;6.57;5.97;;;8.40;99.90;;;;;;5114323;28;20797;-82
2023/05/18 01:52:04;;;;;;;7.27;6.57;;;8.50;99.90;;;;;;5113766;28;20494;-82
2023/05/18 01:54:32;;;;;;;8.83;7.00;;;8.50;99.90;;;;;;5113827;28;20886;-82
2023/05/18 01:57:01;;;;;;;8.00;5.93;;;8.40;99.90;;;;;;5113913;28;20820;-82
2023/05/18 01:59:30;;;;;;;6.33;5.50;;;8.30;99.90;;;;;;5113261;28;20935;-81
2023/05/18 02:02:00;;;;;;;7.07;5.57;;;8.40;99.90;;;;;;5113317;28;20498;-82
2023/05/18 02:04:27;;;;;;;6.57;5.57;;;8.40;99.90;;;;;;5113764;28;20551;-82
2023/05/18 02:06:54;;;;;;;5.90;5.33;;;8.40;99.90;;;;;;5113546;28;20475;-82
2023/05/18 02:09:21;;;;;;;6.03;5.53;;;8.30;99.90;;;;;;5113645;28;20490;-82
2023/05/18 02:11:48;;;;;;;6.27;5.73;;;8.40;99.90;;;;;;5113697;28;20508;-82
2023/05/18 02:14:15;;;;;;;6.30;5.70;;;8.40;99.90;;;;;;5115885;28;20439;-82
2023/05/18 02:16:45;;;;;;;6.53;5.63;;;8.40;99.90;;;;;;5113941;28;20461;-83
2023/05/18 02:19:13;;;;;;;6.57;5.57;;;8.20;99.90;;;;;;5113247;28;20446;-82
2023/05/18 02:21:40;;;;;;;6.50;5.27;;;8.00;99.90;;;;;;5112504;28;20546;-82
2023/05/18 02:24:08;;;;;;;6.00;5.50;;;8.00;99.90;;;;;;5112978;28;20975;-82
2023/05/18 02:26:36;;;;;;;5.60;5.10;;;7.90;99.90;;;;;;5112992;28;20511;-82
2023/05/18 02:29:05;;;;;;;6.50;5.53;;;7.90;99.90;;;;;;5113116;28;21109;-83
2023/05/18 02:31:32;;;;;;;6.60;6.00;;;7.90;99.90;;;;;;5112398;28;20494;-82
2023/05/18 02:34:00;;;;;;;5.10;4.60;;;8.00;99.90;;;;;;5113333;28;20508;-83
2023/05/18 02:36:35;;;;;;;6.67;6.07;;;8.00;99.90;;;;;;5112926;28;20453;-81
2023/05/18 02:39:03;;;;;;;7.90;5.77;;;8.10;99.90;;;;;;5112959;28;20453;-83
2023/05/18 02:41:30;;;;;;;6.50;5.67;;;8.10;99.90;;;;;;5112682;28;20840;-82
2023/05/18 02:43:57;;;;;;;7.10;6.40;;;8.10;99.90;;;;;;5113062;28;20443;-83
2023/05/18 02:46:24;;;;;;;7.00;6.30;;;8.00;99.90;;;;;;5112495;28;20551;-82
2023/05/18 02:48:51;;;;;;;6.10;5.33;;;8.00;99.90;;;;;;5112935;28;20529;-82
2023/05/18 02:51:20;;;;;;;7.43;6.57;;;7.90;99.90;;;;;;5112660;28;20494;-82
2023/05/18 02:53:47;;;;;;;8.57;6.23;;;8.10;99.90;;;;;;5112397;28;20448;-82
2023/05/18 02:56:14;;;;;;;6.87;6.17;;;7.90;99.90;;;;;;5112576;28;20522;-82
2023/05/18 02:58:42;;;;;;;6.20;5.57;;;7.80;99.90;;;;;;5111833;28;20449;-83
2023/05/18 03:01:11;;;;;;;7.90;7.10;;;7.90;99.90;;;;;;5112277;28;20463;-82
2023/05/18 03:03:38;;;;;;;6.87;5.93;;;8.00;99.90;;;;;;5112367;28;20438;-80
2023/05/18 03:06:07;;;;;;;8.33;5.80;;;8.00;99.90;;;;;;5112193;28;20531;-81
2023/05/18 03:08:35;;;;;;;8.53;6.30;;;8.20;99.90;;;;;;5112634;28;20446;-82
2023/05/18 03:11:03;;;;;;;6.30;5.77;;;8.10;99.90;;;;;;5112005;28;20524;-82
2023/05/18 03:13:30;;;;;;;6.30;5.70;;;7.90;99.90;;;;;;5112317;28;20522;-82
2023/05/18 03:15:57;;;;;;;6.60;6.00;;;7.70;99.90;;;;;;5111979;28;20443;-83
2023/05/18 03:18:24;;;;;;;6.90;6.20;;;7.70;99.90;;;;;;5112248;28;20492;-82
2023/05/18 03:20:51;;;;;;;6.43;5.07;;;7.90;99.90;;;;;;5112129;28;20485;-82
2023/05/18 03:23:18;;;;;;;6.70;6.10;;;8.10;99.90;;;;;;5111972;28;20430;-82
2023/05/18 03:25:53;;;;;;;7.37;5.87;;;8.10;99.90;;;;;;5112320;28;20475;-82
2023/05/18 03:28:20;;;;;;;6.50;5.70;;;8.10;99.90;;;;;;5112574;28;20438;-82
2023/05/18 03:30:47;;;;;;;6.13;5.43;;;8.00;99.90;;;;;;5111712;28;20534;-82
2023/05/18 03:33:14;;;;;;;6.60;5.60;;;8.00;99.90;;;;;;5112138;28;20458;-82
2023/05/18 03:35:41;;;;;;;7.43;6.50;;;7.90;99.90;;;;;;5111536;28;20522;-82
2023/05/18 03:38:08;;;;;;;6.30;5.70;;;7.80;99.90;;;;;;5112042;28;20535;-82
2023/05/18 03:40:35;;;;;;;7.33;5.87;;;7.70;99.90;;;;;;5112141;28;20439;-82
2023/05/18 03:43:03;;;;;;;5.83;5.23;;;7.80;99.90;;;;;;5112002;28;20439;-82
2023/05/18 03:45:30;;;;;;;6.33;5.63;;;7.90;99.90;;;;;;5112087;28;20470;-82
2023/05/18 03:47:57;;;;;;;6.30;5.77;;;7.70;99.90;;;;;;5111972;28;20521;-82
2023/05/18 03:50:24;;;;;;;7.67;5.77;;;7.80;99.90;;;;;;5111541;28;20530;-82
2023/05/18 03:52:52;;;;;;;6.63;6.03;;;7.80;99.90;;;;;;5111738;28;20544;-82
2023/05/18 03:55:20;;;;;;;8.67;6.03;;;7.90;99.90;;;;;;5111272;28;20453;-82
2023/05/18 03:57:47;;;;;;;6.33;5.23;;;8.00;99.90;;;;;;5111600;28;20443;-82
2023/05/18 04:00:16;;;;;;;6.67;6.07;;;8.00;99.90;;;;;;5112133;28;20530;-82
2023/05/18 04:02:43;;;;;;;6.97;6.27;;;8.10;99.90;;;;;;5112029;28;20459;-82
2023/05/18 04:05:10;;;;;;;5.97;5.47;;;8.10;99.90;;;;;;5113416;28;20470;-82
2023/05/18 04:07:42;;;;;;;8.03;6.20;;;8.00;99.90;;;;;;5115934;28;20491;-82
2023/05/18 04:10:10;;;;;;;9.80;6.63;;;7.90;99.90;;;;;;5116153;28;20451;-82
2023/05/18 04:12:37;;;;;;;6.87;6.23;;;8.00;99.90;;;;;;5115638;28;20546;-82
2023/05/18 04:15:05;;;;;;;8.20;6.13;;;8.10;99.90;;;;;;5116007;28;20542;-82
2023/05/18 04:17:34;;;;;;;8.30;7.50;;;8.20;99.90;;;;;;5115714;28;20474;-82
2023/05/18 04:20:05;;;;;;;7.77;6.27;;;8.20;99.90;;;;;;5115833;28;20831;-82
2023/05/18 04:22:32;;;;;;;6.40;5.77;;;8.00;99.90;;;;;;5114908;28;21014;-82
2023/05/18 04:25:00;;;;;;;5.80;5.30;;;7.90;99.90;;;;;;5115444;28;20998;-82
2023/05/18 04:27:28;;;;;;;8.30;6.53;;;8.00;99.90;;;;;;5116020;28;20831;-82
2023/05/18 04:29:55;;;;;;;8.40;5.50;;;8.10;99.90;;;;;;5115670;28;20508;-82
2023/05/18 04:32:25;;;;;;;7.77;7.07;;;8.00;99.90;;;;;;5115329;28;20498;-82
2023/05/18 04:34:57;;;;;;;8.43;6.47;;;7.80;99.90;;;;;;5115374;28;20835;-82
2023/05/18 04:37:24;;;;;;;6.27;5.60;;;7.90;99.90;;;;;;5115717;28;20521;-82
2023/05/18 04:39:52;;;;;;;7.17;6.33;;;8.00;99.90;;;;;;5115383;28;21234;-81
2023/05/18 04:42:19;;;;;;;6.50;5.90;;;8.00;99.90;;;;;;5115040;28;20967;-82
2023/05/18 04:44:47;;;;;;;6.80;6.10;;;8.20;99.90;;;;;;5115432;28;20527;-82
2023/05/18 04:47:14;;;;;;;7.40;6.67;;;8.00;99.90;;;;;;5115261;28;20445;-82
2023/05/18 04:49:42;;;;;;;8.63;7.73;;;8.00;99.90;;;;;;5115056;28;20522;-82
2023/05/18 04:52:10;;;;;;;6.70;6.10;;;7.90;99.90;;;;;;5115000;28;20553;-82
2023/05/18 04:54:39;;;;;;;7.20;6.30;;;8.00;99.90;;;;;;5114944;28;20495;-82
2023/05/18 04:57:07;;;;;;;8.93;6.87;;;8.10;99.90;;;;;;5114905;28;20446;-82
2023/05/18 04:59:35;;;;;;;6.93;6.10;;;8.10;99.90;;;;;;5114911;28;20474;-81
2023/05/18 05:02:03;;;;;;;7.90;6.40;;;8.20;99.90;;;;;;5114374;28;20508;-82
2023/05/18 05:04:30;;;;;;;8.50;6.80;;;7.80;99.90;;;;;;5115144;28;20451;-82
2023/05/18 05:06:57;;;;;;;13.63;7.83;;;7.90;99.90;;;;;;5114999;28;20994;-82
2023/05/18 05:09:25;;;;;;;8.33;6.80;;;7.90;99.90;;;;;;5114811;28;20523;-82
2023/05/18 05:11:52;;;;;;;7.60;6.90;;;7.90;99.90;;;;;;5114318;28;20501;-82
2023/05/18 05:14:19;;;;;;;8.23;7.43;;;7.80;99.90;;;;;;5114488;28;20443;-82
2023/05/18 05:16:46;;;;;;;7.80;7.00;;;7.70;99.90;;;;;;5113410;28;20492;-82
2023/05/18 05:19:14;;;;;;;8.20;7.40;;;7.70;99.90;;;;;;5115846;28;20515;-82
2023/05/18 05:21:41;;;;;;;8.63;6.87;;;7.70;99.90;;;;;;5113921;28;20463;-82
2023/05/18 05:24:08;;;;;;;9.30;7.07;;;7.70;99.90;;;;;;5114597;28;20923;-82
2023/05/18 05:26:36;;;;;;;9.30;6.80;;;7.90;99.90;;;;;;5114568;28;20514;-81
2023/05/18 05:29:03;;;;;;;6.80;5.97;;;7.90;99.90;;;;;;5114242;28;20497;-81
2023/05/18 05:31:30;;;;;;;10.43;7.63;;;8.10;99.90;;;;;;5114373;28;20978;-82
2023/05/18 05:33:57;;;;;;;7.87;6.17;;;8.20;99.90;;;;;;5114387;28;20483;-82
2023/05/18 05:36:24;;;;;;;9.47;5.70;;;8.30;99.90;;;;;;5114240;28;20443;-83
2023/05/18 05:38:51;;;;;;;8.50;6.70;;;8.30;99.90;;;;;;5114397;28;20524;-82
2023/05/18 05:41:18;;;;;;;10.03;7.90;;;8.40;99.90;;;;;;5113822;28;20524;-82
2023/05/18 05:43:46;;;;;;;7.50;6.80;;;8.40;99.90;;;;;;5114309;28;20525;-82
2023/05/18 05:46:13;;;;;;;8.93;6.73;;;8.50;99.90;;;;;;5113778;28;20478;-82
2023/05/18 05:48:40;;;;;;;8.37;7.13;;;8.50;99.90;;;;;;5113855;28;20519;-82
2023/05/18 05:51:07;;;;;;;8.67;6.83;;;8.60;99.90;;;;;;5113994;28;20455;-82
2023/05/18 05:53:34;;;;;;;8.10;6.60;;;8.70;99.90;;;;;;5114268;28;20467;-82
2023/05/18 05:56:01;;;;;;;7.50;6.80;;;8.60;99.90;;;;;;5113808;28;20431;-82
2023/05/18 05:58:27;;;;;;;9.87;7.47;;;8.60;99.90;;;;;;5113363;28;20474;-82
2023/05/18 06:00:56;;;;;;;8.60;7.80;;;8.70;99.90;;;;;;5113665;28;20893;-82
2023/05/18 06:03:23;;;;;;;9.00;7.50;;;8.80;99.90;;;;;;5115888;28;20474;-82
2023/05/18 06:05:50;;;;;;;9.00;8.20;;;8.80;99.90;;;;;;5113483;28;20566;-82
2023/05/18 06:08:17;;;;;;;11.70;9.03;;;8.60;99.90;;;;;;5113501;28;20496;-81
2023/05/18 06:10:44;;;;;;;10.90;9.43;;;8.60;99.90;;;;;;5113159;28;21000;-82
2023/05/18 06:13:11;;;;;;;9.80;7.80;;;8.70;99.90;;;;;;5113349;28;20443;-82
2023/05/18 06:15:38;;;;;;;8.50;7.70;;;8.70;99.90;;;;;;5113330;28;20475;-82
2023/05/18 06:18:06;;;;;;;8.27;7.40;;;8.80;99.90;;;;;;5113376;28;20527;-82
2023/05/18 06:20:33;;;;;;;8.43;7.20;;;8.80;99.90;;;;;;5104700;28;20528;-82
2023/05/18 06:23:00;;;;;;;8.20;7.50;;;8.80;99.90;;;;;;5096156;28;20545;-82
2023/05/18 06:25:27;;;;;;;8.73;7.83;;;8.80;99.90;;;;;;5092547;28;20446;-82
2023/05/18 06:27:54;;;;;;;8.57;7.80;;;8.90;99.90;;;;;;5092307;28;20467;-82
2023/05/18 06:30:21;;;;;;;8.60;7.23;;;8.90;99.90;;;;;;5092791;28;20452;-82
2023/05/18 06:32:48;;;;;;;8.60;7.70;;;9.00;99.90;;;;;;5092534;28;20496;-82
2023/05/18 06:35:16;;;;;;;10.03;7.70;;;9.00;99.90;;;;;;5092379;28;20480;-81
2023/05/18 06:37:43;;;;;;;8.13;7.40;;;8.90;99.90;;;;;;5092218;28;20489;-82
2023/05/18 06:40:10;;;;;;;8.93;7.53;;;9.00;99.90;;;;;;5092857;28;20501;-82
2023/05/18 06:42:37;;;;;;;8.13;7.33;;;8.90;99.90;;;;;;5092476;28;20471;-82
2023/05/18 06:45:05;;;;;;;8.17;7.37;;;9.00;99.90;;;;;;5092686;28;20560;-83
2023/05/18 06:47:32;;;;;;;9.33;8.43;;;9.10;99.90;;;;;;5092626;28;20488;-82
2023/05/18 06:49:59;;;;;;;7.30;6.60;;;9.10;99.90;;;;;;5092581;28;20444;-83
2023/05/18 06:52:27;;;;;;;8.50;7.70;;;9.00;99.90;;;;;;5092515;28;20544;-83
2023/05/18 06:54:54;;;;;;;7.27;6.57;;;9.10;99.90;;;;;;5092208;28;20438;-83
2023/05/18 06:57:21;;;;;;;7.30;6.60;;;9.10;99.90;;;;;;5100301;28;20445;-83
2023/05/18 06:59:52;;;;;;;9.23;8.00;;;9.20;99.90;;;;;;5099070;28;20468;-82
2023/05/18 07:02:19;;;;;;;8.47;7.57;;;9.10;99.90;;;;;;5099641;28;21224;-83
2023/05/18 07:04:47;;;;;;;15.83;8.83;;;9.10;99.90;;;;;;5100777;28;20437;-82
2023/05/18 07:07:15;;;;;;;8.73;7.33;;;9.20;99.90;;;;;;5100814;28;20504;-83
2023/05/18 07:09:44;;;;;;;11.50;7.60;;;9.20;99.90;;;;;;5100292;28;20439;-83
2023/05/18 07:12:11;;;;;;;11.27;9.20;;;9.30;99.90;;;;;;5099631;28;20467;-82
2023/05/18 07:14:38;;;;;;;9.80;7.30;;;9.30;99.90;;;;;;5099542;28;20485;-83
2023/05/18 07:17:06;;;;;;;8.80;7.93;;;9.40;99.90;;;;;;5102085;28;20558;-82
2023/05/18 07:19:34;;;;;;;12.60;10.10;;;9.50;99.90;;;;;;5100959;28;20868;-83
2023/05/18 07:22:01;;;;;;;8.93;8.00;;;9.50;99.90;;;;;;5098376;28;20952;-83
2023/05/18 07:24:27;;;;;;;7.83;7.13;;;9.40;99.90;;;;;;5101910;28;20519;-83
2023/05/18 07:26:56;;;;;;;7.67;6.97;;;9.20;99.90;;;;;;5100850;28;20503;-83
2023/05/18 07:29:23;;;;;;;8.63;7.83;;;9.10;99.90;;;;;;5099212;28;20517;-82
2023/05/18 07:31:50;;;;;;;8.33;7.53;;;9.10;99.90;;;;;;5101216;28;20554;-83
2023/05/18 07:34:17;;;;;;;8.10;6.90;;;9.00;99.90;;;;;;5100948;28;20928;-83
2023/05/18 07:36:44;;;;;;;8.93;7.30;;;9.00;99.90;;;;;;5098780;28;20491;-82
2023/05/18 07:39:17;;;;;;;9.33;6.93;;;9.20;99.90;;;;;;5100633;28;20463;-83
2023/05/18 07:41:44;;;;;;;8.97;8.07;;;9.20;99.90;;;;;;5101400;28;20468;-82
2023/05/18 07:44:12;;;;;;;8.10;7.27;;;9.30;99.90;;;;;;5099371;28;20535;-82
2023/05/18 07:46:40;;;;;;;6.67;6.07;;;9.40;99.90;;;;;;5099386;28;20539;-82
2023/05/18 07:49:07;;;;;;;7.30;6.60;;;9.40;99.90;;;;;;5101092;28;20491;-82
2023/05/18 07:51:34;;;;;;;6.53;5.50;;;9.40;99.90;;;;;;5104736;28;20865;-84
2023/05/18 07:54:00;;;;;;;6.80;6.10;;;9.50;99.90;;;;;;5100417;28;20436;-83
2023/05/18 07:56:28;;;;;;;7.27;6.63;;;9.60;99.90;;;;;;5102813;28;20431;-86
2023/05/18 07:58:55;;;;;;;7.53;6.87;;;9.70;99.90;;;;;;5109301;28;20444;-83
2023/05/18 08:01:26;;;;;;;6.80;6.20;;;9.70;99.90;;;;;;5105517;28;20558;-83
2023/05/18 08:03:53;;;;;;;7.20;6.50;;;9.80;99.90;;;;;;5100458;28;20529;-83
2023/05/18 08:06:20;;;;;;;7.17;6.47;;;9.80;99.90;;;;;;5087712;28;20475;-83
2023/05/18 08:08:47;;;;;;;6.83;5.93;;;9.80;99.90;;;;;;5088118;28;20468;-83
2023/05/18 08:11:14;;;;;;;6.30;5.70;;;9.60;99.90;;;;;;5087195;28;20541;-83
2023/05/18 08:13:41;;;;;;;6.80;6.20;;;9.50;99.90;;;;;;5087457;28;20482;-83
2023/05/18 08:16:08;;;;;;;8.17;6.83;;;9.60;99.90;;;;;;5087415;28;20887;-83
2023/05/18 08:18:36;;;;;;;6.23;5.63;;;9.80;99.90;;;;;;5087691;28;20513;-82
2023/05/18 08:21:06;;;;;;;8.03;6.00;;;9.90;99.90;;;;;;5087802;28;21065;-84
2023/05/18 08:23:33;;;;;;;6.97;5.03;;;10.00;99.90;;;;;;5087149;28;20453;-84
2023/05/18 08:26:02;;;;;;;6.30;5.70;;;10.00;99.90;;;;;;5088475;28;20560;-83
2023/05/18 08:28:29;;;;;;;7.77;6.40;;;10.00;99.90;;;;;;5087782;28;20491;-83
2023/05/18 08:30:56;;;;;;;5.80;5.20;;;10.00;99.90;;;;;;5093747;28;20468;-83
2023/05/18 08:33:23;;;;;;;5.30;4.80;;;10.00;99.90;;;;;;5087057;28;20514;-83
2023/05/18 08:35:51;;;;;;;6.00;5.40;;;10.00;99.90;;;;;;5087775;28;20544;-83
2023/05/18 08:38:18;;;;;;;5.80;5.30;;;10.10;99.90;;;;;;5088055;28;20443;-83
2023/05/18 08:40:52;;;;;;;8.20;7.40;;;10.10;99.90;;;;;;5106362;28;20543;-83
2023/05/18 08:43:22;;;;;;;5.63;5.10;;;10.00;99.90;;;;;;5108150;28;20526;-83
2023/05/18 08:45:54;;;;;;;6.67;4.90;;;10.10;99.90;;;;;;5108117;28;20452;-82
2023/05/18 08:48:22;;;;;;;9.80;7.90;;;10.10;99.90;;;;;;5108233;28;20571;-84
2023/05/18 08:50:53;;;;;;;5.97;5.37;;;10.20;99.90;;;;;;5109240;28;20448;-84
2023/05/18 08:53:24;;;;;;;5.10;4.23;;;10.20;99.90;;;;;;5112299;28;20453;-84
2023/05/18 08:55:54;;;;;;;5.07;3.83;;;10.30;99.90;;;;;;5111734;28;20482;-84
2023/05/18 08:58:32;;;;;;;3.70;3.40;;;10.30;99.90;;;;;;5112532;28;20473;-84
2023/05/18 09:00:59;;;;;;;3.77;3.30;;;10.30;99.90;;;;;;5108107;28;20545;-84
2023/05/18 09:03:27;;;;;;;3.93;3.53;;;10.30;99.90;;;;;;5091961;28;20463;-83
2023/05/18 09:05:56;;;;;;;4.07;3.67;;;10.40;99.90;;;;;;5091606;28;20455;-84
2023/05/18 09:08:24;;;;;;;3.97;3.57;;;10.30;99.90;;;;;;5092429;28;20509;-83
2023/05/18 09:10:52;;;;;;;3.33;2.83;;;10.30;99.90;;;;;;5091184;28;20957;-83
2023/05/18 09:13:20;;;;;;;4.07;3.60;;;10.40;99.90;;;;;;5091290;28;20521;-83
2023/05/18 09:15:47;;;;;;;4.13;3.30;;;10.30;99.90;;;;;;5091094;28;20962;-83
2023/05/18 09:18:14;;;;;;;4.50;4.00;;;10.20;99.90;;;;;;5092061;28;20453;-84
2023/05/18 09:20:41;;;;;;;3.97;3.57;;;10.20;99.90;;;;;;5102413;28;20534;-84
2023/05/18 09:23:11;;;;;;;5.40;3.93;;;10.30;99.90;;;;;;5111205;28;20949;-83
2023/05/18 09:25:43;;;;;;;4.60;4.17;;;10.30;99.90;;;;;;5111767;28;20436;-84
2023/05/18 09:28:12;;;;;;;4.50;4.07;;;10.50;99.90;;;;;;5111443;28;20489;-83
2023/05/18 09:30:46;;;;;;;6.10;4.30;;;10.40;99.90;;;;;;5110308;28;20451;-84
2023/05/18 09:33:17;;;;;;;4.87;4.47;;;10.50;99.90;;;;;;5110350;28;20552;-82
2023/05/18 09:35:46;;;;;;;6.30;4.83;;;10.60;99.90;;;;;;5109978;28;20528;-84
2023/05/18 09:38:16;;;;;;;4.30;3.90;;;10.60;99.90;;;;;;5110972;28;20472;-83
2023/05/18 09:40:47;;;;;;;4.60;4.20;;;10.70;99.90;;;;;;5110643;28;21124;-83
2023/05/18 09:43:15;;;;;;;3.60;3.30;;;10.60;99.90;;;;;;5107828;28;20443;-84
2023/05/18 09:45:43;;;;;;;4.20;3.63;;;10.70;99.90;;;;;;5089107;28;20953;-83
2023/05/18 09:48:10;;;;;;;3.60;3.30;;;10.70;99.90;;;;;;5088793;28;21070;-83
2023/05/18 09:50:38;;;;;;;5.50;3.67;;;10.70;99.90;;;;;;5091452;28;20445;-84
2023/05/18 09:53:08;;;;;;;3.70;3.40;;;10.70;99.90;;;;;;5091592;28;20552;-83
2023/05/18 09:55:44;;;;;;;3.93;3.53;;;10.70;99.90;;;;;;5091409;28;20552;-84
2023/05/18 09:58:11;;;;;;;2.90;2.70;;;10.70;99.90;;;;;;5090915;28;20464;-82
2023/05/18 10:00:42;;;;;;;5.30;3.73;;;10.70;99.90;;;;;;5097325;28;20541;-82
2023/05/18 10:03:18;;;;;;;4.00;3.00;;;10.80;99.90;;;;;;5090614;28;20458;-83
2023/05/18 10:05:46;;;;;;;2.90;2.60;;;10.80;99.90;;;;;;5091027;28;20514;-84
2023/05/18 10:08:14;;;;;;;3.10;2.80;;;10.90;99.90;;;;;;5090942;28;21069;-84
2023/05/18 10:10:46;;;;;;;3.80;2.90;;;10.90;99.90;;;;;;5090135;28;20943;-83
2023/05/18 10:13:18;;;;;;;2.63;2.40;;;10.90;99.90;;;;;;5092929;28;20481;-83
2023/05/18 10:15:49;;;;;;;3.43;2.53;;;10.90;99.90;;;;;;5098615;28;20539;-83
2023/05/18 10:18:22;;;;;;;3.03;2.70;;;11.00;99.90;;;;;;5097989;28;20510;-84
2023/05/18 10:20:51;;;;;;;3.30;2.53;;;10.90;99.90;;;;;;5097359;28;20816;-83
2023/05/18 10:23:19;;;;;;;2.63;2.23;;;11.00;99.90;;;;;;5094507;28;20929;-82
2023/05/18 10:25:49;;;;;;;3.90;3.27;;;11.10;99.90;;;;;;5089785;28;20448;-82
2023/05/18 10:28:23;;;;;;;3.10;2.33;;;11.10;99.90;;;;;;5103816;28;20484;-83
2023/05/18 10:30:52;;;;;;;3.20;2.30;;;11.10;99.90;;;;;;5106832;28;20449;-83
2023/05/18 10:33:19;;;;;;;3.17;2.60;;;11.10;99.90;;;;;;5089194;28;20535;-82
2023/05/18 10:35:48;;;;;;;4.43;2.87;;;11.10;99.90;;;;;;5088847;28;20434;-83
2023/05/18 10:38:19;;;;;;;3.10;2.43;;;11.20;99.90;;;;;;5089680;28;20540;-83
2023/05/18 10:40:50;;;;;;;3.90;2.53;;;11.20;99.90;;;;;;5097800;28;20453;-83
2023/05/18 10:43:20;;;;;;;4.63;3.50;;;11.20;99.90;;;;;;5102325;28;20926;-83
2023/05/18 10:45:51;;;;;;;2.80;2.50;;;11.30;99.90;;;;;;5103224;28;20537;-83
2023/05/18 10:48:20;;;;;;;2.60;2.13;;;11.20;99.90;;;;;;5099789;28;20561;-83
2023/05/18 10:50:49;;;;;;;2.50;2.10;;;11.30;99.90;;;;;;5098516;28;21011;-83
2023/05/18 10:53:18;;;;;;;2.97;2.20;;;11.30;99.90;;;;;;5088909;28;20450;-83
2023/05/18 10:55:45;;;;;;;2.07;1.33;;;11.30;99.90;;;;;;5088581;28;20454;-83
2023/05/18 10:58:16;;;;;;;2.17;1.77;;;11.40;99.90;;;;;;5087867;28;20528;-83
2023/05/18 11:00:48;;;;;;;2.47;1.97;;;11.40;99.90;;;;;;5096071;28;20471;-83
2023/05/18 11:03:17;;;;;;;3.00;1.63;;;11.40;99.90;;;;;;5097204;28;20474;-83
2023/05/18 11:05:48;;;;;;;1.90;1.70;;;11.40;99.90;;;;;;5107324;28;20662;-83
2023/05/18 11:08:25;;;;;;;5.37;1.90;;;11.40;99.90;;;;;;5108973;28;20543;-83
2023/05/18 11:11:00;;;;;;;1.93;1.57;;;11.40;99.90;;;;;;5108654;28;20444;-83
2023/05/18 11:13:30;;;;;;;2.83;2.53;;;11.50;99.90;;;;;;5108502;28;20698;-82
2023/05/18 11:16:08;;;;;;;3.57;2.47;;;11.50;99.90;;;;;;5108744;28;20492;-83
2023/05/18 11:18:38;;;;;;;5.40;3.70;;;11.60;99.90;;;;;;5109494;28;20434;-82
2023/05/18 11:21:18;;;;;;;2.00;1.70;;;11.60;99.90;;;;;;5108597;28;20470;-83
2023/05/18 11:24:13;;;;;;;4.50;1.97;;;11.60;99.90;;;;;;5108521;28;20447;-82
2023/05/18 11:26:41;;;;;;;3.57;2.37;;;11.60;99.90;;;;;;5109025;28;20544;-82
2023/05/18 11:29:21;;;;;;;2.23;2.03;;;11.60;99.90;;;;;;5109190;28;20975;-82
2023/05/18 11:31:50;;;;;;;2.83;2.10;;;11.60;99.90;;;;;;5100418;28;20951;-82
2023/05/18 11:34:44;;;;;;;2.10;1.80;;;11.60;99.90;;;;;;5089960;28;20493;-82
2023/05/18 11:37:12;;;;;;;22.00;14.00;;;11.60;99.90;;;;;;5088794;28;20966;-83
2023/05/18 11:39:40;;;;;;;4.20;3.43;;;11.70;99.90;;;;;;5089283;28;20492;-83
2023/05/18 11:42:08;;;;;;;3.53;2.40;;;11.70;99.90;;;;;;5094671;28;20477;-83
2023/05/18 11:44:38;;;;;;;2.83;2.50;;;11.70;99.90;;;;;;5097133;28;20450;-83
2023/05/18 11:47:09;;;;;;;3.73;2.80;;;11.80;99.90;;;;;;5088437;28;20446;-83
2023/05/18 11:49:44;;;;;;;1.90;1.80;;;11.70;99.90;;;;;;5088381;28;21083;-83
2023/05/18 11:52:16;;;;;;;3.47;2.77;;;11.70;99.90;;;;;;5087999;28;20691;-83
2023/05/18 11:54:45;;;;;;;3.90;2.60;;;11.70;99.90;;;;;;5088206;28;20450;-83
2023/05/18 11:57:13;;;;;;;5.40;2.43;;;11.80;99.90;;;;;;5088687;28;20472;-82
2023/05/18 11:59:44;;;;;;;3.10;2.27;;;11.80;99.90;;;;;;5086597;28;20496;-83
2023/05/18 12:02:12;;;;;;;2.53;2.20;;;11.90;99.90;;;;;;5087718;28;20524;-83
2023/05/18 12:04:45;;;;;;;2.80;2.50;;;11.90;99.90;;;;;;5087941;28;20890;-82
2023/05/18 12:07:12;;;;;;;2.00;1.80;;;12.00;99.90;;;;;;5087807;28;20446;-83
2023/05/18 12:09:44;;;;;;;2.63;2.17;;;11.90;99.90;;;;;;5088034;28;20537;-83
2023/05/18 12:12:12;;;;;;;2.47;2.07;;;11.90;99.90;;;;;;5087551;28;20501;-83
2023/05/18 12:14:43;;;;;;;3.27;2.30;;;12.00;99.90;;;;;;5087736;28;20527;-83
2023/05/18 12:17:11;;;;;;;2.40;2.10;;;12.00;99.90;;;;;;5092389;28;20454;-83
2023/05/18 12:19:48;;;;;;;3.10;1.73;;;11.90;99.90;;;;;;5099059;28;20527;-81
2023/05/18 12:22:16;;;;;;;2.30;2.10;;;12.00;99.90;;;;;;5099259;28;20900;-83
2023/05/18 12:24:43;;;;;;;4.03;2.37;;;12.00;99.90;;;;;;5095459;28;21186;-83
2023/05/18 12:27:12;;;;;;;2.87;2.50;;;12.00;99.90;;;;;;5105844;28;20557;-82
2023/05/18 12:29:40;;;;;;;2.77;2.40;;;12.10;99.90;;;;;;5111714;28;20524;-83
2023/05/18 12:32:10;;;;;;;4.30;2.77;;;12.10;99.90;;;;;;5099180;28;20468;-82
2023/05/18 12:34:38;;;;;;;2.67;2.47;;;12.10;99.90;;;;;;5091903;28;20456;-83
2023/05/18 12:37:06;;;;;;;2.40;2.17;;;12.20;99.90;;;;;;5092119;28;20443;-82
2023/05/18 12:39:34;;;;;;;2.30;2.00;;;12.20;99.90;;;;;;5091630;28;20531;-83
2023/05/18 12:42:11;;;;;;;2.60;2.00;;;12.30;99.90;;;;;;5091438;28;20466;-82
2023/05/18 12:44:38;;;;;;;2.23;1.73;;;12.30;99.90;;;;;;5091792;28;20495;-82
2023/05/18 12:47:05;;;;;;;2.70;2.50;;;12.30;99.90;;;;;;5091038;28;21049;-83
2023/05/18 12:49:41;;;;;;;2.20;1.97;;;12.30;99.90;;;;;;5091501;28;20479;-83
2023/05/18 12:52:10;;;;;;;6.20;2.63;;;12.30;99.90;;;;;;5090837;28;20520;-83
2023/05/18 12:54:49;;;;;;;2.70;1.80;;;12.40;99.90;;;;;;5091219;28;20447;-82
2023/05/18 12:57:19;;;;;;;2.60;1.97;;;12.30;99.90;;;;;;5090577;28;20537;-82
2023/05/18 12:59:48;;;;;;;2.97;2.37;;;12.40;99.90;;;;;;5091368;28;20444;-82
2023/05/18 13:02:27;;;;;;;2.20;1.93;;;12.40;99.90;;;;;;5097662;28;20464;-83